Time;durP1;ratioP1;P1;durP2;ratioP2;P2;SDS_P1;SDS_P2;PMS_P1;PMS_P2;Temp;Humidity;BMP_temperature;BMP_pressure;BME280_temperature;BME280_humidity;BME280_pressure;Samples;Min_cycle;Max_cycle;Signal;HPM_P1;HPM_P2
2023/04/19 00:00:07;;;;;;;;;;;;;;;17.30;53.99;103201.00;2072128;28;20591;-52
2023/04/19 00:01:11;;;;;;;;;;;;;;;17.29;53.80;103197.44;2055820;28;19930;-55
2023/04/19 00:02:12;;;;;;;;;;;;;;;17.29;54.00;103199.38;2063291;28;19933;-58
2023/04/19 00:03:16;;;;;;;;;;;;;;;17.30;53.76;103203.72;2076736;28;19929;-56
2023/04/19 00:04:19;;;;;;;;;;;;;;;17.29;53.67;103202.09;2074005;28;20416;-55
2023/04/19 00:05:23;;;;;;;;;;;;;;;17.29;53.69;103196.63;2075903;28;19933;-54
2023/04/19 00:06:29;;;;;;;;;;;;;;;17.29;53.96;103202.91;2072035;28;19984;-55
2023/04/19 00:07:31;;;;;;;;;;;;;;;17.29;53.89;103196.63;2079161;28;20308;-54
2023/04/19 00:08:33;;;;;;;;;;;;;;;17.29;53.59;103202.09;2074428;28;19934;-56
2023/04/19 00:09:36;;;;;;;;;;;;;;;17.29;54.09;103202.09;2071635;28;19987;-58
2023/04/19 00:10:38;;;;;;;;;;;;;;;17.29;53.69;103199.38;2066813;28;20246;-55
2023/04/19 00:11:41;;;;;;;;;;;;;;;17.29;53.76;103199.38;2075820;28;20368;-56
2023/04/19 00:12:43;;;;;;;;;;;;;;;17.28;53.80;103201.28;2077552;28;19925;-61
2023/04/19 00:13:46;;;;;;;;;;;;;;;17.28;54.01;103201.28;2074130;28;19984;-56
2023/04/19 00:14:47;;;;;;;;;;;;;;;17.27;53.60;103204.34;2072040;28;20442;-56
2023/04/19 00:15:50;;;;;;;;;;;;;;;17.28;53.69;103201.28;2072185;28;19936;-55
2023/04/19 00:16:52;;;;;;;;;;;;;;;17.28;53.77;103200.50;2075048;28;19929;-56
2023/04/19 00:17:55;;;;;;;;;;;;;;;17.27;53.64;103199.69;2077238;28;19979;-56
2023/04/19 00:18:56;;;;;;;;;;;;;;;17.27;53.59;103205.16;2075429;28;20411;-57
2023/04/19 00:19:59;;;;;;;;;;;;;;;17.28;53.91;103205.97;2076373;28;20423;-56
2023/04/19 00:21:01;;;;;;;;;;;;;;;17.28;53.77;103205.97;2080560;28;19939;-56
2023/04/19 00:22:05;;;;;;;;;;;;;;;17.28;53.69;103200.50;2070961;28;20473;-56
2023/04/19 00:23:07;;;;;;;;;;;;;;;17.27;53.74;103204.34;2070315;28;19941;-56
2023/04/19 00:24:10;;;;;;;;;;;;;;;17.27;53.75;103198.88;2074709;28;19936;-55
2023/04/19 00:25:11;;;;;;;;;;;;;;;17.27;53.75;103198.88;2072508;28;19930;-57
2023/04/19 00:26:15;;;;;;;;;;;;;;;17.27;53.85;103198.88;2070401;28;20043;-56
2023/04/19 00:27:22;;;;;;;;;;;;;;;17.27;53.93;103204.34;2072184;28;20041;-57
2023/04/19 00:28:25;;;;;;;;;;;;;;;17.26;53.39;103203.56;2072768;28;19929;-56
2023/04/19 00:29:27;;;;;;;;;;;;;;;17.27;53.84;103207.09;2071109;28;19936;-55
2023/04/19 00:30:29;;;;;;;;;;;;;;;17.26;53.97;103202.75;2071723;28;20013;-55
2023/04/19 00:31:32;;;;;;;;;;;;;;;17.26;53.87;103203.56;2071017;28;20028;-54
2023/04/19 00:32:34;;;;;;;;;;;;;;;17.26;53.72;103202.75;2078565;28;19929;-56
2023/04/19 00:33:36;;;;;;;;;;;;;;;17.26;54.02;103203.56;2076562;28;19929;-55
2023/04/19 00:34:39;;;;;;;;;;;;;;;17.26;53.87;103203.56;2076477;28;20444;-58
2023/04/19 00:35:41;;;;;;;;;;;;;;;17.26;53.97;103202.75;2079507;28;19937;-55
2023/04/19 00:36:43;;;;;;;;;;;;;;;17.25;53.75;103212.88;2071058;28;19936;-55
2023/04/19 00:37:48;;;;;;;;;;;;;;;17.25;53.57;103201.94;2074731;28;20921;-55
2023/04/19 00:38:50;;;;;;;;;;;;;;;17.25;53.67;103201.94;2076111;28;20524;-55
2023/04/19 00:39:52;;;;;;;;;;;;;;;17.25;53.58;103206.63;2073335;28;19933;-55
2023/04/19 00:40:54;;;;;;;;;;;;;;;17.25;53.66;103201.94;2071807;28;20407;-61
2023/04/19 00:41:56;;;;;;;;;;;;;;;17.26;53.81;103208.22;2080070;28;20381;-55
2023/04/19 00:42:59;;;;;;;;;;;;;;;17.25;53.71;103206.63;2072707;28;20596;-57
2023/04/19 00:44:00;;;;;;;;;;;;;;;17.25;53.67;103206.63;2064864;28;19930;-55
2023/04/19 00:45:03;;;;;;;;;;;;;;;17.26;53.82;103208.22;2063999;28;20344;-60
2023/04/19 00:46:05;;;;;;;;;;;;;;;17.25;53.58;103201.16;2075440;28;20404;-59
2023/04/19 00:47:08;;;;;;;;;;;;;;;17.25;53.73;103206.63;2072262;28;19929;-55
2023/04/19 00:48:10;;;;;;;;;;;;;;;17.26;53.72;103200.03;2075007;28;19982;-55
2023/04/19 00:49:13;;;;;;;;;;;;;;;17.25;53.93;103201.16;2075946;28;20382;-56
2023/04/19 00:50:15;;;;;;;;;;;;;;;17.25;53.63;103203.91;2072226;28;19953;-56
2023/04/19 00:51:17;;;;;;;;;;;;;;;17.24;53.55;103202.28;2072004;28;20274;-54
2023/04/19 00:52:20;;;;;;;;;;;;;;;17.24;53.88;103203.09;2071512;28;19930;-55
2023/04/19 00:53:24;;;;;;;;;;;;;;;17.24;53.74;103200.38;2072241;28;19929;-56
2023/04/19 00:54:26;;;;;;;;;;;;;;;17.24;53.58;103203.09;2073987;28;19925;-55
2023/04/19 00:55:29;;;;;;;;;;;;;;;17.25;53.41;103203.91;2076968;28;19971;-57
2023/04/19 00:56:32;;;;;;;;;;;;;;;17.24;53.51;103199.56;2063522;28;19981;-55
2023/04/19 00:57:36;;;;;;;;;;;;;;;17.25;53.85;103206.63;2065321;28;19933;-56
2023/04/19 00:58:38;;;;;;;;;;;;;;;17.23;53.86;103196.03;2070050;28;19988;-60
2023/04/19 00:59:41;;;;;;;;;;;;;;;17.24;53.87;103205.00;2073266;28;19925;-57
2023/04/19 01:00:42;;;;;;;;;;;;;;;17.24;53.70;103210.47;2074241;28;19926;-53
2023/04/19 01:01:47;;;;;;;;;;;;;;;17.23;53.88;103206.16;2062944;28;20468;-55
2023/04/19 01:02:49;;;;;;;;;;;;;;;17.23;53.46;103211.63;2057088;28;20386;-54
2023/04/19 01:03:53;;;;;;;;;;;;;;;17.24;53.90;103210.47;2063467;28;20009;-56
2023/04/19 01:04:55;;;;;;;;;;;;;;;17.23;53.73;103209.69;2063562;28;19977;-55
2023/04/19 01:05:58;;;;;;;;;;;;;;;17.22;53.86;103210.81;2070192;28;19930;-54
2023/04/19 01:07:00;;;;;;;;;;;;;;;17.23;53.75;103209.69;2071925;28;19964;-55
2023/04/19 01:08:03;;;;;;;;;;;;;;;17.22;53.73;103201.84;2077055;28;19929;-56
2023/04/19 01:09:06;;;;;;;;;;;;;;;17.22;53.70;103207.28;2074053;28;19932;-55
2023/04/19 01:10:09;;;;;;;;;;;;;;;17.22;53.67;103207.28;2074135;28;20003;-55
2023/04/19 01:11:11;;;;;;;;;;;;;;;17.23;53.66;103203.41;2071562;28;19982;-55
2023/04/19 01:12:13;;;;;;;;;;;;;;;17.23;53.67;103208.88;2071715;28;19926;-55
2023/04/19 01:13:16;;;;;;;;;;;;;;;17.22;53.50;103210.03;2066507;28;20377;-55
2023/04/19 01:14:19;;;;;;;;;;;;;;;17.22;53.55;103202.63;2062901;28;19926;-54
2023/04/19 01:15:21;;;;;;;;;;;;;;;17.22;53.69;103202.63;2068274;28;19930;-55
2023/04/19 01:16:24;;;;;;;;;;;;;;;17.22;53.68;103205.34;2071343;28;20067;-57
2023/04/19 01:17:27;;;;;;;;;;;;;;;17.22;53.76;103201.84;2076893;28;19964;-55
2023/04/19 01:18:36;;;;;;;;;;;;;;;17.21;53.74;103206.47;2065578;28;20526;-54
2023/04/19 01:19:38;;;;;;;;;;;;;;;17.21;53.54;103211.94;2055751;28;19941;-55
2023/04/19 01:20:41;;;;;;;;;;;;;;;17.21;53.61;103200.22;2054735;28;19988;-56
2023/04/19 01:21:43;;;;;;;;;;;;;;;17.21;53.92;103211.94;2063113;28;19996;-56
2023/04/19 01:22:47;;;;;;;;;;;;;;;17.22;53.67;103207.28;2077650;28;20388;-55
2023/04/19 01:23:49;;;;;;;;;;;;;;;17.21;53.80;103205.66;2073876;28;19933;-55
2023/04/19 01:24:52;;;;;;;;;;;;;;;17.21;53.61;103205.66;2076390;28;20018;-55
2023/04/19 01:25:53;;;;;;;;;;;;;;;17.21;53.47;103202.94;2072349;28;19941;-55
2023/04/19 01:26:56;;;;;;;;;;;;;;;17.21;53.69;103200.22;2071064;28;20404;-57
2023/04/19 01:27:58;;;;;;;;;;;;;;;17.22;53.70;103201.84;2073523;28;20388;-61
2023/04/19 01:29:00;;;;;;;;;;;;;;;17.20;53.58;103204.88;2066516;28;19976;-55
2023/04/19 01:30:02;;;;;;;;;;;;;;;17.21;53.61;103205.66;2063675;28;19936;-61
2023/04/19 01:31:05;;;;;;;;;;;;;;;17.21;53.50;103208.41;2071814;28;20357;-60
2023/04/19 01:32:07;;;;;;;;;;;;;;;17.20;53.70;103206.81;2067486;28;19934;-56
2023/04/19 01:33:10;;;;;;;;;;;;;;;17.20;53.59;103204.06;2071366;28;20435;-55
2023/04/19 01:34:12;;;;;;;;;;;;;;;17.20;53.71;103209.53;2073241;28;19982;-55
2023/04/19 01:35:14;;;;;;;;;;;;;;;17.20;53.79;103209.53;2072229;28;19929;-57
2023/04/19 01:36:18;;;;;;;;;;;;;;;17.19;53.83;103216.09;2075090;28;19929;-56
2023/04/19 01:37:20;;;;;;;;;;;;;;;17.20;53.81;103215.00;2078326;28;19929;-58
2023/04/19 01:38:23;;;;;;;;;;;;;;;17.19;53.59;103207.91;2076009;28;19929;-63
2023/04/19 01:39:26;;;;;;;;;;;;;;;17.20;53.72;103215.00;2077586;28;19933;-60
2023/04/19 01:40:28;;;;;;;;;;;;;;;17.21;53.46;103213.84;2072625;28;20393;-56
2023/04/19 01:41:32;;;;;;;;;;;;;;;17.19;53.95;103214.19;2070638;28;19930;-61
2023/04/19 01:42:34;;;;;;;;;;;;;;;17.20;53.69;103217.72;2070833;28;19930;-55
2023/04/19 01:43:37;;;;;;;;;;;;;;;17.19;53.67;103208.72;2064128;28;19961;-61
2023/04/19 01:44:38;;;;;;;;;;;;;;;17.19;53.62;103218.84;2061155;28;19933;-54
2023/04/19 01:45:41;;;;;;;;;;;;;;;17.19;53.64;103213.38;2070603;28;19975;-56
2023/04/19 01:46:43;;;;;;;;;;;;;;;17.18;53.53;103218.06;2072002;28;19933;-56
2023/04/19 01:47:47;;;;;;;;;;;;;;;17.19;53.68;103218.84;2071015;28;19959;-55
2023/04/19 01:48:49;;;;;;;;;;;;;;;17.19;53.70;103213.38;2070806;28;19936;-55
2023/04/19 01:49:51;;;;;;;;;;;;;;;17.18;53.63;103212.59;2071963;28;19948;-56
2023/04/19 01:50:53;;;;;;;;;;;;;;;17.18;53.85;103212.59;2070400;28;19937;-53
2023/04/19 01:51:56;;;;;;;;;;;;;;;17.19;53.87;103221.56;2076901;28;19975;-59
2023/04/19 01:52:59;;;;;;;;;;;;;;;17.18;53.73;103212.59;2076659;28;19925;-56
2023/04/19 01:54:02;;;;;;;;;;;;;;;17.19;53.56;103218.84;2066810;28;20439;-57
2023/04/19 01:55:05;;;;;;;;;;;;;;;17.18;53.53;103212.59;2071568;28;19960;-56
2023/04/19 01:56:07;;;;;;;;;;;;;;;17.18;53.92;103209.06;2064387;28;20025;-54
2023/04/19 01:57:11;;;;;;;;;;;;;;;17.19;53.47;103213.38;2064785;28;20585;-56
2023/04/19 01:58:13;;;;;;;;;;;;;;;17.18;53.60;103218.06;2077200;28;19972;-54
2023/04/19 01:59:16;;;;;;;;;;;;;;;17.19;53.64;103216.09;2068578;28;19925;-57
2023/04/19 02:00:18;;;;;;;;;;;;;;;17.18;53.69;103217.25;2062100;28;20020;-55
2023/04/19 02:01:22;;;;;;;;;;;;;;;17.18;53.56;103214.53;2060529;28;19930;-56
2023/04/19 02:02:25;;;;;;;;;;;;;;;17.18;53.65;103228.16;2068290;28;19926;-57
2023/04/19 02:03:28;;;;;;;;;;;;;;;17.17;53.88;103221.91;2074249;28;20003;-56
2023/04/19 02:04:32;;;;;;;;;;;;;;;17.18;53.56;103225.44;2067431;28;19925;-56
2023/04/19 02:05:35;;;;;;;;;;;;;;;17.18;53.72;103225.44;2064395;28;19930;-56
2023/04/19 02:06:37;;;;;;;;;;;;;;;17.17;53.61;103216.44;2063709;28;19929;-55
2023/04/19 02:07:40;;;;;;;;;;;;;;;17.17;53.70;103221.13;2071457;28;19969;-55
2023/04/19 02:08:41;;;;;;;;;;;;;;;17.16;53.42;103212.13;2063397;28;20794;-57
2023/04/19 02:09:45;;;;;;;;;;;;;;;17.16;53.79;103220.31;2062679;28;20680;-57
2023/04/19 02:10:47;;;;;;;;;;;;;;;17.16;53.54;103214.03;2076205;28;20015;-54
2023/04/19 02:11:50;;;;;;;;;;;;;;;17.17;53.37;103215.66;2078398;28;19929;-56
2023/04/19 02:12:52;;;;;;;;;;;;;;;17.17;53.67;103221.13;2072243;28;19929;-56
2023/04/19 02:13:54;;;;;;;;;;;;;;;17.16;53.51;103217.56;2072709;28;19929;-57
2023/04/19 02:14:56;;;;;;;;;;;;;;;17.16;53.55;103220.31;2073195;28;20335;-58
2023/04/19 02:16:04;;;;;;;;;;;;;;;17.16;53.49;103220.31;2069753;28;19949;-53
2023/04/19 02:17:06;;;;;;;;;;;;;;;17.16;53.66;103220.31;2064770;28;20009;-56
2023/04/19 02:18:10;;;;;;;;;;;;;;;17.16;53.51;103214.03;2061322;28;19930;-55
2023/04/19 02:19:13;;;;;;;;;;;;;;;17.16;53.65;103217.56;2070247;28;19983;-57
2023/04/19 02:20:16;;;;;;;;;;;;;;;17.16;53.49;103214.84;2064141;28;19932;-54
2023/04/19 02:21:18;;;;;;;;;;;;;;;17.16;53.74;103223.03;2056538;28;20413;-55
2023/04/19 02:22:22;;;;;;;;;;;;;;;17.15;53.62;103220.63;2055822;28;19930;-56
2023/04/19 02:23:24;;;;;;;;;;;;;;;17.16;53.82;103222.22;2063903;28;19960;-57
2023/04/19 02:24:26;;;;;;;;;;;;;;;17.16;53.64;103219.50;2072286;28;19996;-59
2023/04/19 02:25:30;;;;;;;;;;;;;;;17.15;53.71;103226.09;2068971;28;19937;-55
2023/04/19 02:26:32;;;;;;;;;;;;;;;17.15;53.59;103217.91;2073021;28;19936;-57
2023/04/19 02:27:34;;;;;;;;;;;;;;;17.15;53.76;103216.00;2075096;28;20438;-56
2023/04/19 02:28:38;;;;;;;;;;;;;;;17.16;53.53;103227.69;2075030;28;19930;-57
2023/04/19 02:29:39;;;;;;;;;;;;;;;17.15;53.58;103217.91;2066065;28;19941;-59
2023/04/19 02:30:42;;;;;;;;;;;;;;;17.15;53.73;103223.38;2072862;28;19929;-55
2023/04/19 02:31:45;;;;;;;;;;;;;;;17.15;53.35;103217.91;2071792;28;20020;-57
2023/04/19 02:32:47;;;;;;;;;;;;;;;17.15;53.75;103223.38;2063863;28;20023;-55
2023/04/19 02:33:49;;;;;;;;;;;;;;;17.15;53.61;103224.19;2065877;28;19941;-56
2023/04/19 02:34:52;;;;;;;;;;;;;;;17.14;53.55;103219.81;2068324;28;19949;-57
2023/04/19 02:35:53;;;;;;;;;;;;;;;17.15;53.54;103223.38;2072576;28;19929;-56
2023/04/19 02:36:56;;;;;;;;;;;;;;;17.15;53.64;103226.09;2071270;28;19971;-56
2023/04/19 02:37:58;;;;;;;;;;;;;;;17.14;53.51;103222.56;2075773;28;19929;-56
2023/04/19 02:39:01;;;;;;;;;;;;;;;17.14;53.59;103224.50;2079396;28;19936;-58
2023/04/19 02:40:04;;;;;;;;;;;;;;;17.14;53.58;103228.00;2075517;28;19933;-57
2023/04/19 02:41:08;;;;;;;;;;;;;;;17.13;53.53;103223.69;2076310;28;19974;-56
2023/04/19 02:42:12;;;;;;;;;;;;;;;17.14;53.58;103221.78;2074563;28;20024;-55
2023/04/19 02:43:15;;;;;;;;;;;;;;;17.14;53.60;103224.50;2063607;28;20009;-56
2023/04/19 02:44:17;;;;;;;;;;;;;;;17.14;53.92;103230.75;2063746;28;20348;-56
2023/04/19 02:45:20;;;;;;;;;;;;;;;17.14;53.73;103232.69;2072229;28;20313;-56
2023/04/19 02:46:21;;;;;;;;;;;;;;;17.14;53.72;103235.44;2072503;28;19937;-56
2023/04/19 02:47:24;;;;;;;;;;;;;;;17.14;53.54;103235.44;2074269;28;19969;-53
2023/04/19 02:48:26;;;;;;;;;;;;;;;17.13;53.34;103231.88;2073877;28;19929;-56
2023/04/19 02:49:31;;;;;;;;;;;;;;;17.13;53.78;103231.88;2072042;28;19930;-56
2023/04/19 02:50:35;;;;;;;;;;;;;;;17.12;53.60;103230.28;2068354;28;19984;-56
2023/04/19 02:51:38;;;;;;;;;;;;;;;17.13;53.55;103236.53;2072010;28;20048;-56
2023/04/19 02:52:40;;;;;;;;;;;;;;;17.13;53.78;103231.88;2063917;28;20036;-56
2023/04/19 02:53:43;;;;;;;;;;;;;;;17.12;53.39;103233.03;2063500;28;19983;-56
2023/04/19 02:54:45;;;;;;;;;;;;;;;17.13;53.33;103231.88;2064297;28;19925;-56
2023/04/19 02:55:47;;;;;;;;;;;;;;;17.12;53.71;103235.75;2055628;28;19926;-54
2023/04/19 02:56:53;;;;;;;;;;;;;;;17.12;53.57;103243.94;2063572;28;19937;-55
2023/04/19 02:57:56;;;;;;;;;;;;;;;17.12;53.33;103235.75;2053157;28;19930;-56
2023/04/19 02:58:59;;;;;;;;;;;;;;;17.12;53.61;103237.66;2058167;28;19930;-55
2023/04/19 03:00:04;;;;;;;;;;;;;;;17.13;53.46;103244.72;2056265;28;20021;-57
2023/04/19 03:01:06;;;;;;;;;;;;;;;17.12;53.39;103243.94;2063732;28;20427;-56
2023/04/19 03:02:09;;;;;;;;;;;;;;;17.12;53.48;103235.75;2060959;28;20080;-55
2023/04/19 03:03:11;;;;;;;;;;;;;;;17.12;53.42;103240.41;2050576;28;19964;-57
2023/04/19 03:04:14;;;;;;;;;;;;;;;17.13;53.48;103242.00;2063518;28;19933;-55
2023/04/19 03:05:16;;;;;;;;;;;;;;;17.12;53.43;103241.22;2063636;28;19930;-56
2023/04/19 03:06:19;;;;;;;;;;;;;;;17.12;53.42;103238.47;2061395;28;19941;-54
2023/04/19 03:07:21;;;;;;;;;;;;;;;17.12;53.60;103234.94;2075999;28;19968;-56
2023/04/19 03:08:23;;;;;;;;;;;;;;;17.11;53.61;103233.34;2074952;28;19933;-55
2023/04/19 03:09:25;;;;;;;;;;;;;;;17.11;53.73;103233.34;2064566;28;19992;-58
2023/04/19 03:10:27;;;;;;;;;;;;;;;17.12;53.75;103234.94;2072975;28;19925;-56
2023/04/19 03:11:29;;;;;;;;;;;;;;;17.12;53.57;103229.47;2074821;28;20377;-57
2023/04/19 03:12:34;;;;;;;;;;;;;;;17.10;53.69;103229.00;2071694;28;20512;-56
2023/04/19 03:13:36;;;;;;;;;;;;;;;17.11;53.38;103230.63;2071424;28;20379;-56
2023/04/19 03:14:39;;;;;;;;;;;;;;;17.11;53.30;103230.63;2073928;28;19980;-57
2023/04/19 03:15:41;;;;;;;;;;;;;;;17.12;53.69;103229.47;2078645;28;20447;-55
2023/04/19 03:16:44;;;;;;;;;;;;;;;17.11;53.67;103228.66;2070249;28;19930;-54
2023/04/19 03:17:46;;;;;;;;;;;;;;;17.09;53.63;103230.94;2059940;28;19930;-55
2023/04/19 03:18:49;;;;;;;;;;;;;;;17.11;53.57;103227.91;2055658;28;20265;-55
2023/04/19 03:19:55;;;;;;;;;;;;;;;17.09;53.38;103230.13;2063990;28;20373;-56
2023/04/19 03:20:58;;;;;;;;;;;;;;;17.11;53.23;103227.91;2077731;28;20043;-54
2023/04/19 03:22:03;;;;;;;;;;;;;;;17.10;53.72;103229.00;2071394;28;19929;-57
2023/04/19 03:23:07;;;;;;;;;;;;;;;17.10;53.36;103226.28;2063643;28;20386;-56
2023/04/19 03:24:09;;;;;;;;;;;;;;;17.09;53.51;103230.94;2063731;28;19948;-53
2023/04/19 03:25:16;;;;;;;;;;;;;;;17.09;53.67;103225.50;2063701;28;20040;-56
2023/04/19 03:26:22;;;;;;;;;;;;;;;17.10;53.66;103220.81;2068536;28;20491;-57
2023/04/19 03:27:28;;;;;;;;;;;;;;;17.09;53.32;103213.75;2070073;28;19964;-56
2023/04/19 03:28:35;;;;;;;;;;;;;;;17.09;53.22;103224.69;2055921;28;19937;-54
2023/04/19 03:29:51;;;;;;;;;;;;;;;17.08;53.69;103214.88;2066286;28;20417;-54
2023/04/19 03:30:53;;;;;;;;;;;;;;;17.09;53.43;103213.75;2064634;28;20043;-56
2023/04/19 03:31:55;;;;;;;;;;;;;;;17.09;53.21;103221.94;2071617;28;20397;-56
2023/04/19 03:32:58;;;;;;;;;;;;;;;17.08;53.23;103223.88;2066631;28;19930;-57
2023/04/19 03:34:01;;;;;;;;;;;;;;;17.09;53.50;103221.94;2074947;28;19925;-56
2023/04/19 03:35:09;;;;;;;;;;;;;;;17.09;53.27;103219.22;2070287;28;19956;-56
2023/04/19 03:36:12;;;;;;;;;;;;;;;17.08;53.42;103226.59;2058880;28;20567;-54
2023/04/19 03:37:17;;;;;;;;;;;;;;;17.08;53.41;103223.06;2070434;28;19925;-56
2023/04/19 03:38:20;;;;;;;;;;;;;;;17.06;53.18;103215.19;2071988;28;19929;-57
2023/04/19 03:39:22;;;;;;;;;;;;;;;17.07;53.47;103222.28;2062981;28;20025;-56
2023/04/19 03:40:29;;;;;;;;;;;;;;;17.07;53.23;103222.28;2055961;28;19981;-57
2023/04/19 03:41:30;;;;;;;;;;;;;;;17.07;53.63;103219.53;2068139;28;20496;-55
2023/04/19 03:42:53;;;;;;;;;;;;;;;17.06;53.40;103220.66;2062319;28;19934;-56
2023/04/19 03:44:02;;;;;;;;;;;;;;;17.07;53.21;103226.94;2066103;28;19937;-56
2023/04/19 03:45:05;;;;;;;;;;;;;;;17.07;53.53;103221.47;2055744;28;19936;-56
2023/04/19 03:46:10;;;;;;;;;;;;;;;17.06;53.42;103223.38;2064024;28;20024;-56
2023/04/19 03:47:13;;;;;;;;;;;;;;;17.08;53.18;103214.88;2071662;28;19989;-56
2023/04/19 03:48:17;;;;;;;;;;;;;;;17.06;53.38;103219.88;2074796;28;19967;-56
2023/04/19 03:49:20;;;;;;;;;;;;;;;17.07;53.50;103221.47;2073237;28;19929;-56
2023/04/19 03:50:27;;;;;;;;;;;;;;;17.07;53.22;103226.94;2076099;28;19940;-60
2023/04/19 03:51:31;;;;;;;;;;;;;;;17.06;53.37;103222.59;2063510;28;19983;-55
2023/04/19 03:52:33;;;;;;;;;;;;;;;17.06;53.40;103223.38;2068903;28;19934;-56
2023/04/19 03:53:36;;;;;;;;;;;;;;;17.07;53.38;103221.47;2066672;28;19934;-56
2023/04/19 03:54:38;;;;;;;;;;;;;;;17.05;53.25;103224.53;2063134;28;20041;-55
2023/04/19 03:55:46;;;;;;;;;;;;;;;17.06;53.47;103226.13;2062859;28;19930;-56
2023/04/19 03:56:47;;;;;;;;;;;;;;;17.05;53.38;103224.53;2063507;28;19987;-56
2023/04/19 03:57:50;;;;;;;;;;;;;;;17.06;53.35;103225.34;2076634;28;19929;-56
2023/04/19 03:58:59;;;;;;;;;;;;;;;17.06;53.26;103225.34;2067722;28;20317;-56
2023/04/19 04:00:07;;;;;;;;;;;;;;;17.04;53.26;103227.56;2060658;28;19973;-57
2023/04/19 04:01:16;;;;;;;;;;;;;;;17.04;53.13;103233.03;2065643;28;19930;-56
2023/04/19 04:02:20;;;;;;;;;;;;;;;17.04;53.30;103230.31;2062908;28;20011;-54
2023/04/19 04:03:21;;;;;;;;;;;;;;;17.05;53.31;103240.91;2063139;28;19926;-55
2023/04/19 04:04:24;;;;;;;;;;;;;;;17.05;53.35;103242.81;2071022;28;19976;-56
2023/04/19 04:05:26;;;;;;;;;;;;;;;17.04;53.22;103239.31;2060542;28;19969;-56
2023/04/19 04:06:29;;;;;;;;;;;;;;;17.04;53.18;103242.03;2069931;28;19929;-56
2023/04/19 04:07:31;;;;;;;;;;;;;;;17.04;53.48;103241.22;2071883;28;19983;-56
2023/04/19 04:08:34;;;;;;;;;;;;;;;17.04;53.47;103246.69;2062707;28;20362;-56
2023/04/19 04:09:36;;;;;;;;;;;;;;;17.04;53.24;103243.97;2063963;28;19930;-58
2023/04/19 04:10:39;;;;;;;;;;;;;;;17.03;53.37;103242.38;2070957;28;20515;-55
2023/04/19 04:11:41;;;;;;;;;;;;;;;17.03;53.28;103242.38;2067691;28;20028;-56
2023/04/19 04:12:46;;;;;;;;;;;;;;;17.03;53.29;103243.16;2060832;28;20228;-56
2023/04/19 04:13:54;;;;;;;;;;;;;;;17.03;53.43;103245.09;2061962;28;20382;-56
2023/04/19 04:15:02;;;;;;;;;;;;;;;17.03;53.07;103247.81;2070887;28;19929;-55
2023/04/19 04:16:06;;;;;;;;;;;;;;;17.03;53.12;103250.56;2063377;28;19933;-54
2023/04/19 04:17:09;;;;;;;;;;;;;;;17.02;53.40;103249.75;2063385;28;20360;-55
2023/04/19 04:18:11;;;;;;;;;;;;;;;17.02;53.31;103247.00;2063490;28;20723;-54
2023/04/19 04:19:13;;;;;;;;;;;;;;;17.03;53.14;103247.81;2059710;28;19940;-56
2023/04/19 04:20:15;;;;;;;;;;;;;;;17.02;53.26;103248.94;2055465;28;19938;-55
2023/04/19 04:21:18;;;;;;;;;;;;;;;17.02;53.22;103255.19;2062994;28;20021;-56
2023/04/19 04:22:21;;;;;;;;;;;;;;;17.01;53.41;103244.63;2057016;28;19930;-56
2023/04/19 04:23:24;;;;;;;;;;;;;;;17.01;53.22;103250.88;2054629;28;20040;-56
2023/04/19 04:24:26;;;;;;;;;;;;;;;17.02;53.33;103251.66;2065711;28;20067;-56
2023/04/19 04:25:38;;;;;;;;;;;;;;;17.02;53.29;103246.19;2074726;28;20016;-56
2023/04/19 04:26:45;;;;;;;;;;;;;;;17.01;53.16;103255.53;2063137;28;20268;-56
2023/04/19 04:27:59;;;;;;;;;;;;;;;17.00;53.22;103252.00;2057521;28;20509;-56
2023/04/19 04:29:01;;;;;;;;;;;;;;;16.99;53.11;103247.66;2055338;28;19972;-55
2023/04/19 04:30:05;;;;;;;;;;;;;;;17.02;53.21;103248.94;2055290;28;19938;-55
2023/04/19 04:31:11;;;;;;;;;;;;;;;17.00;53.05;103248.47;2063013;28;19941;-54
2023/04/19 04:32:17;;;;;;;;;;;;;;;17.01;53.11;103244.63;2062348;28;19926;-57
2023/04/19 04:33:18;;;;;;;;;;;;;;;17.00;52.96;103252.00;2062438;28;20393;-54
2023/04/19 04:34:21;;;;;;;;;;;;;;;17.01;52.90;103250.06;2062957;28;19926;-55
2023/04/19 04:35:29;;;;;;;;;;;;;;;17.00;53.11;103248.47;2056153;28;19969;-56
2023/04/19 04:36:40;;;;;;;;;;;;;;;17.00;53.07;103243.81;2055204;28;20465;-64
2023/04/19 04:37:42;;;;;;;;;;;;;;;17.00;53.30;103251.22;2061972;28;20328;-56
2023/04/19 04:38:45;;;;;;;;;;;;;;;17.00;53.24;103248.47;2062854;28;19930;-57
2023/04/19 04:39:47;;;;;;;;;;;;;;;16.99;53.17;103244.13;2061452;28;19926;-57
2023/04/19 04:40:50;;;;;;;;;;;;;;;17.00;53.19;103253.94;2071506;28;19934;-51
2023/04/19 04:41:52;;;;;;;;;;;;;;;16.99;53.64;103247.66;2064502;28;19926;-55
2023/04/19 04:42:55;;;;;;;;;;;;;;;17.01;53.66;103255.53;2068579;28;20412;-56
2023/04/19 04:43:59;;;;;;;;;;;;;;;17.01;53.37;103255.53;2057601;28;19930;-55
2023/04/19 04:45:12;;;;;;;;;;;;;;;17.01;53.72;103250.06;2056475;28;20389;-55
2023/04/19 04:46:19;;;;;;;;;;;;;;;17.02;53.75;103257.13;2062935;28;19953;-56
2023/04/19 04:47:21;;;;;;;;;;;;;;;17.02;53.58;103251.66;2062915;28;20317;-55
2023/04/19 04:48:30;;;;;;;;;;;;;;;17.01;53.70;103255.53;2055404;28;20040;-55
2023/04/19 04:49:31;;;;;;;;;;;;;;;17.03;53.75;103250.56;2063001;28;19976;-54
2023/04/19 04:50:34;;;;;;;;;;;;;;;17.02;53.66;103254.38;2069750;28;19981;-54
2023/04/19 04:51:36;;;;;;;;;;;;;;;17.01;53.61;103255.53;2068189;28;19976;-54
2023/04/19 04:52:39;;;;;;;;;;;;;;;17.01;53.71;103245.41;2062975;28;19941;-54
2023/04/19 04:53:49;;;;;;;;;;;;;;;17.02;53.66;103257.13;2059135;28;19926;-55
2023/04/19 04:54:53;;;;;;;;;;;;;;;17.02;53.59;103257.13;2063712;28;19929;-55
2023/04/19 04:56:01;;;;;;;;;;;;;;;17.01;53.49;103250.88;2062777;28;19930;-53
2023/04/19 04:57:04;;;;;;;;;;;;;;;17.01;53.74;103253.59;2062775;28;19941;-56
2023/04/19 04:58:06;;;;;;;;;;;;;;;17.01;53.69;103252.81;2070937;28;19930;-52
2023/04/19 04:59:32;;;;;;;;;;;;;;;17.02;53.71;103257.13;2063420;28;20004;-55
2023/04/19 05:00:33;;;;;;;;;;;;;;;17.01;53.68;103250.06;2071484;28;19937;-57
2023/04/19 05:01:43;;;;;;;;;;;;;;;17.01;53.71;103255.53;2071265;28;19963;-55
2023/04/19 05:02:47;;;;;;;;;;;;;;;17.02;53.46;103257.13;2076214;28;20653;-54
2023/04/19 05:03:50;;;;;;;;;;;;;;;17.01;53.61;103256.34;2070416;28;19941;-55
2023/04/19 05:04:53;;;;;;;;;;;;;;;17.01;53.58;103255.53;2065296;28;19977;-54
2023/04/19 05:05:56;;;;;;;;;;;;;;;17.01;53.64;103250.88;2062079;28;19933;-51
2023/04/19 05:06:58;;;;;;;;;;;;;;;17.02;53.66;103254.38;2062282;28;20374;-51
2023/04/19 05:08:02;;;;;;;;;;;;;;;17.00;53.50;103253.94;2054559;28;20380;-50
2023/04/19 05:09:05;;;;;;;;;;;;;;;17.00;53.69;103254.72;2064769;28;20418;-53
2023/04/19 05:10:09;;;;;;;;;;;;;;;17.01;53.59;103258.25;2062601;28;20508;-52
2023/04/19 05:11:19;;;;;;;;;;;;;;;17.01;53.53;103256.34;2055495;28;19985;-50
2023/04/19 05:12:21;;;;;;;;;;;;;;;17.01;53.60;103250.88;2039360;28;19931;-56
2023/04/19 05:13:24;;;;;;;;;;;;;;;17.02;53.59;103257.13;2054575;28;20382;-54
2023/04/19 05:14:25;;;;;;;;;;;;;;;17.01;53.69;103250.88;2062545;28;19995;-53
2023/04/19 05:15:28;;;;;;;;;;;;;;;17.01;53.36;103259.06;2054984;28;20025;-54
2023/04/19 05:16:31;;;;;;;;;;;;;;;17.01;53.59;103261.78;2054409;28;20448;-53
2023/04/19 05:17:35;;;;;;;;;;;;;;;17.02;53.71;103262.59;2059257;28;20088;-54
2023/04/19 05:18:37;;;;;;;;;;;;;;;17.02;53.49;103257.94;2067278;28;19956;-53
2023/04/19 05:19:40;;;;;;;;;;;;;;;17.02;53.62;103259.84;2073549;28;20440;-55
2023/04/19 05:20:47;;;;;;;;;;;;;;;17.02;53.54;103257.94;2062720;28;20460;-56
2023/04/19 05:21:53;;;;;;;;;;;;;;;17.01;53.52;103256.34;2057190;28;19988;-56
2023/04/19 05:22:58;;;;;;;;;;;;;;;17.02;53.48;103257.94;2061052;28;19934;-55
2023/04/19 05:23:59;;;;;;;;;;;;;;;17.02;53.30;103257.13;2063977;28;19968;-56
2023/04/19 05:25:02;;;;;;;;;;;;;;;17.02;53.59;103254.38;2070515;28;19972;-54